createdAt,value
2017-01-19T00:00:04.686Z,73539
2017-01-19T00:00:13.365Z,73538
2017-01-19T00:00:22.048Z,73538
2017-01-19T00:00:30.720Z,73535
2017-01-19T00:00:39.391Z,73532
2017-01-19T00:00:48.053Z,73528
2017-01-19T00:00:56.727Z,73531
2017-01-19T00:01:05.385Z,73529
2017-01-19T00:01:14.439Z,73539
2017-01-19T00:01:23.137Z,73541
2017-01-19T00:01:31.803Z,73544
2017-01-19T00:01:40.476Z,73544
2017-01-19T00:01:49.141Z,73538
2017-01-19T00:01:57.842Z,73542
2017-01-19T00:02:06.505Z,73538
2017-01-19T00:02:15.148Z,73537
2017-01-19T00:02:23.810Z,73540
2017-01-19T00:02:32.485Z,73538
2017-01-19T00:02:41.163Z,73540
2017-01-19T00:02:49.849Z,73530
2017-01-19T00:02:58.531Z,73529
2017-01-19T00:03:07.232Z,73538
2017-01-19T00:03:15.906Z,73535
2017-01-19T00:03:24.582Z,73532
2017-01-19T00:03:33.236Z,73534
2017-01-19T00:03:41.903Z,73525
2017-01-19T00:03:50.590Z,73527
2017-01-19T00:03:59.266Z,73528
2017-01-19T00:04:07.957Z,73531
2017-01-19T00:04:16.634Z,73532
2017-01-19T00:04:25.305Z,73531
2017-01-19T00:04:33.964Z,73533
2017-01-19T00:04:42.649Z,73535
2017-01-19T00:04:51.304Z,73538
2017-01-19T00:04:59.994Z,73539
2017-01-19T00:05:09.019Z,73537
2017-01-19T00:05:17.676Z,73539
2017-01-19T00:05:26.365Z,73538
2017-01-19T00:05:35.034Z,73536
2017-01-19T00:05:43.698Z,73537
2017-01-19T00:05:52.361Z,73537
2017-01-19T00:06:01.019Z,73537
2017-01-19T00:06:09.687Z,73538
2017-01-19T00:06:18.347Z,73544
2017-01-19T00:06:27.019Z,73537
2017-01-19T00:06:35.684Z,73545
2017-01-19T00:06:44.366Z,73544
2017-01-19T00:06:53.023Z,73543
2017-01-19T00:07:01.676Z,73545
2017-01-19T00:07:10.360Z,73546
2017-01-19T00:07:19.035Z,73548
2017-01-19T00:07:27.703Z,73548
2017-01-19T00:07:36.366Z,73547
2017-01-19T00:07:45.040Z,73551
2017-01-19T00:07:53.691Z,73547
2017-01-19T00:08:02.353Z,73549
2017-01-19T00:08:11.037Z,73552
2017-01-19T00:08:19.725Z,73556
2017-01-19T00:08:28.391Z,73552
2017-01-19T00:08:37.063Z,73554
2017-01-19T00:08:45.730Z,73550
2017-01-19T00:08:54.412Z,73555
2017-01-19T00:09:03.109Z,73550
2017-01-19T00:09:11.759Z,73553
2017-01-19T00:09:20.439Z,73553
2017-01-19T00:09:29.114Z,73551
2017-01-19T00:09:37.799Z,73550
2017-01-19T00:09:46.481Z,73549
2017-01-19T00:09:55.155Z,73549
2017-01-19T00:10:03.823Z,73551
2017-01-19T00:10:12.469Z,73549
2017-01-19T00:10:21.121Z,73552
2017-01-19T00:10:29.772Z,73554
2017-01-19T00:10:38.432Z,73548
2017-01-19T00:10:47.105Z,73546
2017-01-19T00:10:55.782Z,73544
2017-01-19T00:11:04.463Z,73549
2017-01-19T00:11:13.138Z,73552
2017-01-19T00:11:21.854Z,73558
2017-01-19T00:11:30.543Z,73555
2017-01-19T00:11:39.216Z,73558
2017-01-19T00:11:47.903Z,73553
2017-01-19T00:11:56.572Z,73555
2017-01-19T00:12:05.254Z,73547
2017-01-19T00:12:13.929Z,73548
2017-01-19T00:12:22.598Z,73551
2017-01-19T00:12:31.286Z,73551
2017-01-19T00:12:39.952Z,73551
2017-01-19T00:12:48.620Z,73546
2017-01-19T00:12:57.318Z,73542
2017-01-19T00:13:05.981Z,73550
2017-01-19T00:13:14.645Z,73550
2017-01-19T00:13:23.302Z,73542
2017-01-19T00:13:31.974Z,73540
2017-01-19T00:13:40.642Z,73549
2017-01-19T00:13:49.312Z,73541
2017-01-19T00:13:58.004Z,73547
2017-01-19T00:14:06.679Z,73553
2017-01-19T00:14:15.334Z,73555
2017-01-19T00:14:24.008Z,73552
2017-01-19T00:14:32.670Z,73551
2017-01-19T00:14:41.328Z,73556
2017-01-19T00:14:50.019Z,73554
2017-01-19T00:14:58.703Z,73557
2017-01-19T00:15:07.356Z,73557
2017-01-19T00:15:16.022Z,73554
2017-01-19T00:15:24.685Z,73559
2017-01-19T00:15:33.361Z,73560
2017-01-19T00:15:42.060Z,73563
2017-01-19T00:15:50.731Z,73558
2017-01-19T00:15:59.389Z,73562
2017-01-19T00:16:08.067Z,73561
2017-01-19T00:16:16.750Z,73558
2017-01-19T00:16:25.424Z,73563
2017-01-19T00:16:34.089Z,73555
2017-01-19T00:16:42.756Z,73561
2017-01-19T00:16:51.426Z,73559
2017-01-19T00:17:00.110Z,73557
2017-01-19T00:17:08.769Z,73559
2017-01-19T00:17:17.432Z,73557
2017-01-19T00:17:26.102Z,73559
2017-01-19T00:17:34.790Z,73557
2017-01-19T00:17:43.464Z,73551
2017-01-19T00:17:52.138Z,73551
2017-01-19T00:18:00.845Z,73550
2017-01-19T00:18:09.519Z,73546
2017-01-19T00:18:18.193Z,73551
2017-01-19T00:18:26.857Z,73557
2017-01-19T00:18:35.522Z,73555
2017-01-19T00:18:44.230Z,73551
2017-01-19T00:18:52.872Z,73551
2017-01-19T00:19:01.542Z,73554
2017-01-19T00:19:10.224Z,73552
2017-01-19T00:19:18.901Z,73548
2017-01-19T00:19:27.573Z,73555
2017-01-19T00:19:36.246Z,73550
2017-01-19T00:19:44.937Z,73551
2017-01-19T00:19:53.600Z,73556
2017-01-19T00:20:02.262Z,73556
2017-01-19T00:20:10.942Z,73565
2017-01-19T00:20:19.611Z,73558
2017-01-19T00:20:28.303Z,73559
2017-01-19T00:20:36.969Z,73556
2017-01-19T00:20:45.648Z,73559
2017-01-19T00:20:54.316Z,73553
2017-01-19T00:21:02.976Z,73559
2017-01-19T00:21:11.658Z,73561
2017-01-19T00:21:20.313Z,73564
2017-01-19T00:21:28.998Z,73561
2017-01-19T00:21:37.666Z,73558
2017-01-19T00:21:46.374Z,73554
2017-01-19T00:21:55.051Z,73560
2017-01-19T00:22:03.718Z,73557
2017-01-19T00:22:12.385Z,73556
2017-01-19T00:22:21.045Z,73558
2017-01-19T00:22:29.716Z,73555
2017-01-19T00:22:38.399Z,73560
2017-01-19T00:22:47.053Z,73557
2017-01-19T00:22:55.739Z,73552
2017-01-19T00:23:04.403Z,73552
2017-01-19T00:23:13.180Z,73556
2017-01-19T00:23:21.848Z,73553
2017-01-19T00:23:30.519Z,73557
2017-01-19T00:23:39.192Z,73557
2017-01-19T00:23:47.876Z,73556
2017-01-19T00:23:56.560Z,73559
2017-01-19T00:24:05.246Z,73559
2017-01-19T00:24:13.930Z,73558
2017-01-19T00:24:22.609Z,73553
2017-01-19T00:24:31.292Z,73556
2017-01-19T00:24:39.980Z,73553
2017-01-19T00:24:48.660Z,73555
2017-01-19T00:24:57.346Z,73555
2017-01-19T00:25:06.033Z,73561
2017-01-19T00:25:14.690Z,73552
2017-01-19T00:25:23.357Z,73557
2017-01-19T00:25:32.026Z,73556
2017-01-19T00:25:40.679Z,73558
2017-01-19T00:25:49.344Z,73554
2017-01-19T00:25:58.018Z,73559
2017-01-19T00:26:06.682Z,73558
2017-01-19T00:26:15.350Z,73552
2017-01-19T00:26:24.036Z,73558
2017-01-19T00:26:32.703Z,73559
2017-01-19T00:26:41.369Z,73553
2017-01-19T00:26:50.035Z,73555
2017-01-19T00:26:58.711Z,73550
2017-01-19T00:27:07.362Z,73550
2017-01-19T00:27:16.034Z,73553
2017-01-19T00:27:24.713Z,73553
2017-01-19T00:27:33.403Z,73554
2017-01-19T00:27:42.077Z,73551
2017-01-19T00:27:50.739Z,73555
2017-01-19T00:27:59.422Z,73554
2017-01-19T00:28:08.099Z,73550
2017-01-19T00:28:16.751Z,73553
2017-01-19T00:28:25.435Z,73557
2017-01-19T00:28:34.114Z,73557
2017-01-19T00:28:42.809Z,73552
2017-01-19T00:28:51.461Z,73553
2017-01-19T00:29:00.118Z,73558
2017-01-19T00:29:08.781Z,73564
2017-01-19T00:29:17.443Z,73559
2017-01-19T00:29:26.146Z,73560
2017-01-19T00:29:34.820Z,73557
2017-01-19T00:29:43.501Z,73556
2017-01-19T00:29:52.187Z,73556
2017-01-19T00:30:00.845Z,73552
2017-01-19T00:30:09.517Z,73560
2017-01-19T00:30:18.194Z,73554
2017-01-19T00:30:26.869Z,73558
2017-01-19T00:30:35.538Z,73557
2017-01-19T00:30:44.212Z,73555
2017-01-19T00:30:52.893Z,73553
2017-01-19T00:31:01.566Z,73552
2017-01-19T00:31:10.230Z,73553
2017-01-19T00:31:18.914Z,73554
2017-01-19T00:31:27.584Z,73552
2017-01-19T00:31:36.246Z,73552
2017-01-19T00:31:44.941Z,73551
2017-01-19T00:31:53.600Z,73559
2017-01-19T00:32:02.275Z,73550
2017-01-19T00:32:10.970Z,73556
2017-01-19T00:32:19.640Z,73553
2017-01-19T00:32:28.329Z,73556
2017-01-19T00:32:37.044Z,73557
2017-01-19T00:32:45.694Z,73551
2017-01-19T00:32:54.386Z,73554
2017-01-19T00:33:03.051Z,73557
2017-01-19T00:33:11.723Z,73559
2017-01-19T00:33:20.392Z,73556
2017-01-19T00:33:29.064Z,73557
2017-01-19T00:33:37.753Z,73556
2017-01-19T00:33:46.413Z,73560
2017-01-19T00:33:55.086Z,73562
2017-01-19T00:34:04.124Z,73558
2017-01-19T00:34:12.792Z,73560
2017-01-19T00:34:21.447Z,73556
2017-01-19T00:34:30.126Z,73554
2017-01-19T00:34:38.799Z,73559
2017-01-19T00:34:47.454Z,73557
2017-01-19T00:34:56.115Z,73562
2017-01-19T00:35:04.790Z,73554
2017-01-19T00:35:13.461Z,73557
2017-01-19T00:35:22.138Z,73552
2017-01-19T00:35:30.800Z,73554
2017-01-19T00:35:39.462Z,73554
2017-01-19T00:35:48.121Z,73554
2017-01-19T00:35:56.795Z,73558
2017-01-19T00:36:05.468Z,73561
2017-01-19T00:36:14.130Z,73564
2017-01-19T00:36:22.807Z,73561
2017-01-19T00:36:31.483Z,73568
2017-01-19T00:36:40.160Z,73564
2017-01-19T00:36:48.845Z,73570
2017-01-19T00:36:57.525Z,73563
2017-01-19T00:37:06.196Z,73565
2017-01-19T00:37:14.857Z,73562
2017-01-19T00:37:23.514Z,73566
2017-01-19T00:37:32.186Z,73565
2017-01-19T00:37:40.915Z,73566
2017-01-19T00:37:49.597Z,73559
2017-01-19T00:37:58.293Z,73562
2017-01-19T00:38:06.977Z,73567
2017-01-19T00:38:15.626Z,73566
2017-01-19T00:38:24.297Z,73567
2017-01-19T00:38:32.978Z,73563
2017-01-19T00:38:41.620Z,73563
2017-01-19T00:38:50.287Z,73558
2017-01-19T00:38:58.977Z,73561
2017-01-19T00:39:08.026Z,73569
2017-01-19T00:39:16.681Z,73568
2017-01-19T00:39:25.354Z,73557
2017-01-19T00:39:34.018Z,73560
2017-01-19T00:39:42.692Z,73561
2017-01-19T00:39:51.341Z,73562
2017-01-19T00:40:00.009Z,73560
2017-01-19T00:40:08.689Z,73556
2017-01-19T00:40:17.364Z,73562
2017-01-19T00:40:26.031Z,73562
2017-01-19T00:40:34.740Z,73567
2017-01-19T00:40:43.413Z,73560
2017-01-19T00:40:52.093Z,73562
2017-01-19T00:41:00.773Z,73556
2017-01-19T00:41:09.434Z,73565
2017-01-19T00:41:18.107Z,73559
2017-01-19T00:41:26.788Z,73561
2017-01-19T00:41:35.456Z,73559
2017-01-19T00:41:44.130Z,73561
2017-01-19T00:41:52.804Z,73563
2017-01-19T00:42:01.490Z,73571
2017-01-19T00:42:10.148Z,73569
2017-01-19T00:42:18.825Z,73567
2017-01-19T00:42:27.500Z,73566
2017-01-19T00:42:36.188Z,73558
2017-01-19T00:42:44.845Z,73564
2017-01-19T00:42:53.539Z,73561
2017-01-19T00:43:02.202Z,73556
2017-01-19T00:43:10.865Z,73560
2017-01-19T00:43:19.546Z,73556
2017-01-19T00:43:28.218Z,73558
2017-01-19T00:43:36.913Z,73560
2017-01-19T00:43:45.585Z,73560
2017-01-19T00:43:54.272Z,73565
2017-01-19T00:44:02.958Z,73566
2017-01-19T00:44:11.640Z,73565
2017-01-19T00:44:20.309Z,73566
2017-01-19T00:44:28.987Z,73566
2017-01-19T00:44:37.701Z,73564
2017-01-19T00:44:46.355Z,73570
2017-01-19T00:44:55.021Z,73570
2017-01-19T00:45:03.694Z,73569
2017-01-19T00:45:12.362Z,73566
2017-01-19T00:45:21.026Z,73567
2017-01-19T00:45:29.699Z,73565
2017-01-19T00:45:38.363Z,73563
2017-01-19T00:45:47.005Z,73560
2017-01-19T00:45:55.681Z,73560
2017-01-19T00:46:04.373Z,73563
2017-01-19T00:46:13.040Z,73563
2017-01-19T00:46:21.719Z,73570
2017-01-19T00:46:30.426Z,73565
2017-01-19T00:46:39.119Z,73560
2017-01-19T00:46:47.781Z,73560
2017-01-19T00:46:56.484Z,73560
2017-01-19T00:47:05.145Z,73563
2017-01-19T00:47:13.813Z,73570
2017-01-19T00:47:22.472Z,73567
2017-01-19T00:47:31.160Z,73571
2017-01-19T00:47:39.843Z,73571
2017-01-19T00:47:48.527Z,73567
2017-01-19T00:47:57.192Z,73567
2017-01-19T00:48:05.851Z,73568
2017-01-19T00:48:14.518Z,73567
2017-01-19T00:48:23.223Z,73562
2017-01-19T00:48:31.900Z,73574
2017-01-19T00:48:40.580Z,73564
2017-01-19T00:48:49.271Z,73565
2017-01-19T00:48:57.930Z,73565
2017-01-19T00:49:06.620Z,73565
2017-01-19T00:49:15.324Z,73564
2017-01-19T00:49:23.983Z,73567
2017-01-19T00:49:32.640Z,73572
2017-01-19T00:49:41.295Z,73571
2017-01-19T00:49:49.973Z,73564
2017-01-19T00:49:58.638Z,73569
2017-01-19T00:50:07.317Z,73567
2017-01-19T00:50:16.000Z,73566
2017-01-19T00:50:24.666Z,73567
2017-01-19T00:50:33.340Z,73570
2017-01-19T00:50:42.001Z,73564
2017-01-19T00:50:50.674Z,73565
2017-01-19T00:50:59.339Z,73562
2017-01-19T00:51:08.385Z,73569
2017-01-19T00:51:17.051Z,73568
2017-01-19T00:51:25.719Z,73563
2017-01-19T00:51:34.390Z,73565
2017-01-19T00:51:43.059Z,73568
2017-01-19T00:51:51.725Z,73569
2017-01-19T00:52:01.132Z,73569
2017-01-19T00:52:09.819Z,73569
2017-01-19T00:52:18.485Z,73568
2017-01-19T00:52:27.158Z,73571
2017-01-19T00:52:35.820Z,73574
2017-01-19T00:52:44.485Z,73567
2017-01-19T00:52:53.156Z,73570
2017-01-19T00:53:01.828Z,73566
2017-01-19T00:53:10.503Z,73569
2017-01-19T00:53:19.163Z,73572
2017-01-19T00:53:27.841Z,73566
2017-01-19T00:53:36.517Z,73568
2017-01-19T00:53:45.168Z,73568
2017-01-19T00:53:53.819Z,73571
2017-01-19T00:54:02.469Z,73569
2017-01-19T00:54:11.178Z,73569
2017-01-19T00:54:19.858Z,73567
2017-01-19T00:54:28.514Z,73567
2017-01-19T00:54:37.173Z,73566
2017-01-19T00:54:45.842Z,73570
2017-01-19T00:54:54.503Z,73567
2017-01-19T00:55:03.180Z,73561
2017-01-19T00:55:11.859Z,73563
2017-01-19T00:55:20.515Z,73569
2017-01-19T00:55:29.178Z,73566
2017-01-19T00:55:37.844Z,73569
2017-01-19T00:55:46.500Z,73569
2017-01-19T00:55:55.176Z,73578
2017-01-19T00:56:03.857Z,73574
2017-01-19T00:56:12.504Z,73574
2017-01-19T00:56:21.179Z,73572
2017-01-19T00:56:29.859Z,73569
2017-01-19T00:56:38.540Z,73569
2017-01-19T00:56:47.198Z,73564
2017-01-19T00:56:55.879Z,73572
2017-01-19T00:57:04.549Z,73573
2017-01-19T00:57:13.228Z,73575
2017-01-19T00:57:21.905Z,73579
2017-01-19T00:57:30.574Z,73576
2017-01-19T00:57:39.229Z,73576
2017-01-19T00:57:47.909Z,73576
2017-01-19T00:57:56.582Z,73576
2017-01-19T00:58:05.261Z,73573
2017-01-19T00:58:13.937Z,73578
2017-01-19T00:58:22.597Z,73580
2017-01-19T00:58:31.272Z,73574
2017-01-19T00:58:39.942Z,73577
2017-01-19T00:58:48.624Z,73579
2017-01-19T00:58:57.289Z,73576
2017-01-19T00:59:05.961Z,73575
2017-01-19T00:59:14.645Z,73570
2017-01-19T00:59:23.314Z,73579
2017-01-19T00:59:31.989Z,73581
2017-01-19T00:59:40.678Z,73579
2017-01-19T00:59:49.324Z,73574
2017-01-19T00:59:57.968Z,73573
2017-01-19T01:00:06.635Z,73573
2017-01-19T01:00:15.266Z,73581
2017-01-19T01:00:23.933Z,73575
2017-01-19T01:00:32.608Z,73571
2017-01-19T01:00:41.269Z,73574
2017-01-19T01:00:49.953Z,73572
2017-01-19T01:00:58.621Z,73571
2017-01-19T01:01:07.295Z,73571
2017-01-19T01:01:15.970Z,73569
2017-01-19T01:01:24.634Z,73574
2017-01-19T01:01:33.322Z,73572
2017-01-19T01:01:41.998Z,73582
2017-01-19T01:01:50.678Z,73574
2017-01-19T01:01:59.354Z,73575
2017-01-19T01:02:08.028Z,73571
2017-01-19T01:02:16.687Z,73573
2017-01-19T01:02:25.349Z,73574
2017-01-19T01:02:34.024Z,73567
2017-01-19T01:02:42.697Z,73569
2017-01-19T01:02:51.375Z,73574
2017-01-19T01:03:00.017Z,73571
2017-01-19T01:03:08.676Z,73579
2017-01-19T01:03:17.331Z,73579
2017-01-19T01:03:25.994Z,73577
2017-01-19T01:03:34.710Z,73580
2017-01-19T01:03:43.383Z,73580
2017-01-19T01:03:52.052Z,73584
2017-01-19T01:04:00.696Z,73577
2017-01-19T01:04:09.389Z,73581
2017-01-19T01:04:18.067Z,73576
2017-01-19T01:04:26.742Z,73578
2017-01-19T01:04:35.404Z,73578
2017-01-19T01:04:44.093Z,73578
2017-01-19T01:04:52.786Z,73577
2017-01-19T01:05:01.429Z,73576
2017-01-19T01:05:10.120Z,73571
2017-01-19T01:05:18.800Z,73578
2017-01-19T01:05:27.464Z,73573
2017-01-19T01:05:36.130Z,73570
2017-01-19T01:05:44.804Z,73574
2017-01-19T01:05:53.460Z,73581
2017-01-19T01:06:02.119Z,73576
2017-01-19T01:06:10.789Z,73582
2017-01-19T01:06:19.477Z,73590
2017-01-19T01:06:28.158Z,73587
2017-01-19T01:06:36.846Z,73588
2017-01-19T01:06:45.524Z,73590
2017-01-19T01:06:54.187Z,73584
2017-01-19T01:07:02.853Z,73584
2017-01-19T01:07:11.550Z,73584
2017-01-19T01:07:20.222Z,73583
2017-01-19T01:07:28.878Z,73581
2017-01-19T01:07:37.538Z,73582
2017-01-19T01:07:46.218Z,73586
2017-01-19T01:07:54.915Z,73581
2017-01-19T01:08:03.601Z,73583
2017-01-19T01:08:12.277Z,73582
2017-01-19T01:08:20.941Z,73585
2017-01-19T01:08:29.610Z,73583
2017-01-19T01:08:38.274Z,73587
2017-01-19T01:08:46.946Z,73586
2017-01-19T01:08:55.619Z,73591
2017-01-19T01:09:04.313Z,73588
2017-01-19T01:09:12.983Z,73586
2017-01-19T01:09:21.660Z,73583
2017-01-19T01:09:30.346Z,73583
2017-01-19T01:09:39.022Z,73585
2017-01-19T01:09:47.702Z,73584
2017-01-19T01:09:56.397Z,73589
2017-01-19T01:10:05.064Z,73585
2017-01-19T01:10:13.742Z,73581
2017-01-19T01:10:22.416Z,73581
2017-01-19T01:10:31.066Z,73584
2017-01-19T01:10:39.750Z,73585
2017-01-19T01:10:48.426Z,73586
2017-01-19T01:10:57.090Z,73588
2017-01-19T01:11:05.768Z,73589
2017-01-19T01:11:14.424Z,73584
2017-01-19T01:11:23.090Z,73575
2017-01-19T01:11:31.775Z,73575
2017-01-19T01:11:40.464Z,73580
2017-01-19T01:11:49.142Z,73581
2017-01-19T01:11:57.828Z,73580
2017-01-19T01:12:06.506Z,73589
2017-01-19T01:12:15.171Z,73583
2017-01-19T01:12:23.832Z,73586
2017-01-19T01:12:32.528Z,73583
2017-01-19T01:12:41.194Z,73581
2017-01-19T01:12:49.875Z,73581
2017-01-19T01:12:58.548Z,73580
2017-01-19T01:13:07.222Z,73578
2017-01-19T01:13:15.884Z,73578
2017-01-19T01:13:24.575Z,73580
2017-01-19T01:13:33.239Z,73579
2017-01-19T01:13:41.915Z,73583
2017-01-19T01:13:50.574Z,73583
2017-01-19T01:13:59.227Z,73584
2017-01-19T01:14:07.909Z,73579
2017-01-19T01:14:16.578Z,73583
2017-01-19T01:14:25.235Z,73583
2017-01-19T01:14:33.900Z,73584
2017-01-19T01:14:42.578Z,73584
2017-01-19T01:14:51.239Z,73586
2017-01-19T01:14:59.915Z,73585
2017-01-19T01:15:08.590Z,73584
2017-01-19T01:15:17.253Z,73579
2017-01-19T01:15:25.924Z,73581
2017-01-19T01:15:34.600Z,73581
2017-01-19T01:15:43.277Z,73577
2017-01-19T01:15:51.953Z,73578
2017-01-19T01:16:00.646Z,73578
2017-01-19T01:16:09.292Z,73575
2017-01-19T01:16:17.953Z,73582
2017-01-19T01:16:27.005Z,73581
2017-01-19T01:16:35.673Z,73583
2017-01-19T01:16:44.331Z,73586
2017-01-19T01:16:53.011Z,73586
2017-01-19T01:17:01.699Z,73585
2017-01-19T01:17:10.368Z,73585
2017-01-19T01:17:19.048Z,73588
2017-01-19T01:17:27.715Z,73584
2017-01-19T01:17:36.375Z,73581
2017-01-19T01:17:45.040Z,73580
2017-01-19T01:17:53.697Z,73581
2017-01-19T01:18:02.388Z,73585
2017-01-19T01:18:11.068Z,73581
2017-01-19T01:18:19.728Z,73585
2017-01-19T01:18:28.381Z,73580
2017-01-19T01:18:37.092Z,73585
2017-01-19T01:18:45.763Z,73587
2017-01-19T01:18:54.419Z,73582
2017-01-19T01:19:03.076Z,73585
2017-01-19T01:19:11.730Z,73581
2017-01-19T01:19:20.406Z,73584
2017-01-19T01:19:29.102Z,73585
2017-01-19T01:19:37.762Z,73588
2017-01-19T01:19:46.430Z,73588
2017-01-19T01:19:55.077Z,73586
2017-01-19T01:20:03.738Z,73591
2017-01-19T01:20:12.446Z,73587
2017-01-19T01:20:21.125Z,73592
2017-01-19T01:20:29.802Z,73590
2017-01-19T01:20:38.486Z,73591
2017-01-19T01:20:47.152Z,73590
2017-01-19T01:20:55.819Z,73590
2017-01-19T01:21:04.478Z,73587
2017-01-19T01:21:13.166Z,73586
2017-01-19T01:21:21.856Z,73585
2017-01-19T01:21:30.524Z,73587
2017-01-19T01:21:39.239Z,73595
2017-01-19T01:21:47.892Z,73587
2017-01-19T01:21:56.546Z,73589
2017-01-19T01:22:05.217Z,73589
2017-01-19T01:22:13.873Z,73590
2017-01-19T01:22:22.556Z,73592
2017-01-19T01:22:31.239Z,73593
2017-01-19T01:22:39.904Z,73594
2017-01-19T01:22:48.608Z,73589
2017-01-19T01:22:57.260Z,73586
2017-01-19T01:23:05.942Z,73583
2017-01-19T01:23:14.599Z,73584
2017-01-19T01:23:23.272Z,73590
2017-01-19T01:23:31.939Z,73587
2017-01-19T01:23:40.612Z,73580
2017-01-19T01:23:49.272Z,73586
2017-01-19T01:23:57.924Z,73588
2017-01-19T01:24:06.595Z,73590
2017-01-19T01:24:15.271Z,73585
2017-01-19T01:24:23.932Z,73590
2017-01-19T01:24:32.578Z,73587
2017-01-19T01:24:41.254Z,73584
2017-01-19T01:24:49.937Z,73588
2017-01-19T01:24:58.615Z,73589
2017-01-19T01:25:07.271Z,73583
2017-01-19T01:25:15.946Z,73583
2017-01-19T01:25:24.625Z,73585
2017-01-19T01:25:33.298Z,73587
2017-01-19T01:25:41.955Z,73578
2017-01-19T01:25:50.630Z,73581
2017-01-19T01:25:59.322Z,73586
2017-01-19T01:26:07.978Z,73581
2017-01-19T01:26:16.637Z,73580
2017-01-19T01:26:25.308Z,73583
2017-01-19T01:26:34.369Z,73587
2017-01-19T01:26:43.041Z,73580
2017-01-19T01:26:51.716Z,73577
2017-01-19T01:27:00.379Z,73584
2017-01-19T01:27:09.048Z,73579
2017-01-19T01:27:17.712Z,73575
2017-01-19T01:27:26.395Z,73575
2017-01-19T01:27:35.063Z,73581
2017-01-19T01:27:43.744Z,73579
2017-01-19T01:27:52.416Z,73585
2017-01-19T01:28:01.097Z,73581
2017-01-19T01:28:09.769Z,73587
2017-01-19T01:28:18.426Z,73583
2017-01-19T01:28:27.086Z,73577
2017-01-19T01:28:35.755Z,73578
2017-01-19T01:28:44.430Z,73583
2017-01-19T01:28:53.084Z,73583
2017-01-19T01:29:01.755Z,73582
2017-01-19T01:29:10.435Z,73586
2017-01-19T01:29:19.078Z,73585
2017-01-19T01:29:27.731Z,73584
2017-01-19T01:29:36.388Z,73584
2017-01-19T01:29:45.057Z,73581
2017-01-19T01:29:53.723Z,73589
2017-01-19T01:30:02.406Z,73592
2017-01-19T01:30:11.078Z,73594
2017-01-19T01:30:19.745Z,73592
2017-01-19T01:30:28.427Z,73594
2017-01-19T01:30:37.108Z,73594
2017-01-19T01:30:45.787Z,73590
2017-01-19T01:30:54.450Z,73591
2017-01-19T01:31:03.122Z,73582
2017-01-19T01:31:11.796Z,73596
2017-01-19T01:31:20.481Z,73583
2017-01-19T01:31:29.140Z,73583
2017-01-19T01:31:37.800Z,73586
2017-01-19T01:31:46.474Z,73584
2017-01-19T01:31:55.171Z,73592
2017-01-19T01:32:03.844Z,73586
2017-01-19T01:32:12.522Z,73587
2017-01-19T01:32:21.195Z,73588
2017-01-19T01:32:29.849Z,73587
2017-01-19T01:32:38.506Z,73577
2017-01-19T01:32:47.166Z,73587
2017-01-19T01:32:55.831Z,73581
2017-01-19T01:33:04.501Z,73584
2017-01-19T01:33:13.156Z,73580
2017-01-19T01:33:21.822Z,73584
2017-01-19T01:33:30.474Z,73587
2017-01-19T01:33:39.141Z,73592
2017-01-19T01:33:47.809Z,73591
2017-01-19T01:33:56.480Z,73588
2017-01-19T01:34:05.167Z,73588
2017-01-19T01:34:13.845Z,73589
2017-01-19T01:34:22.510Z,73591
2017-01-19T01:34:31.187Z,73594
2017-01-19T01:34:39.848Z,73594
2017-01-19T01:34:48.533Z,73597
2017-01-19T01:34:57.193Z,73593
2017-01-19T01:35:05.874Z,73593
2017-01-19T01:35:14.533Z,73593
2017-01-19T01:35:23.215Z,73590
2017-01-19T01:35:31.893Z,73591
2017-01-19T01:35:40.569Z,73589
2017-01-19T01:35:49.239Z,73588
2017-01-19T01:35:57.896Z,73589
2017-01-19T01:36:06.576Z,73595
2017-01-19T01:36:15.266Z,73588
2017-01-19T01:36:23.940Z,73600
2017-01-19T01:36:32.624Z,73593
2017-01-19T01:36:41.294Z,73595
2017-01-19T01:36:49.971Z,73597
2017-01-19T01:36:58.645Z,73586
2017-01-19T01:37:07.334Z,73592
2017-01-19T01:37:16.022Z,73590
2017-01-19T01:37:24.691Z,73593
2017-01-19T01:37:33.351Z,73590
2017-01-19T01:37:42.008Z,73590
2017-01-19T01:37:50.675Z,73594
2017-01-19T01:37:59.330Z,73586
2017-01-19T01:38:08.008Z,73590
2017-01-19T01:38:16.690Z,73593
2017-01-19T01:38:25.352Z,73588
2017-01-19T01:38:34.041Z,73593
2017-01-19T01:38:42.703Z,73585
2017-01-19T01:38:51.367Z,73581
2017-01-19T01:39:00.040Z,73581
2017-01-19T01:39:08.712Z,73579
2017-01-19T01:39:17.381Z,73585
2017-01-19T01:39:26.038Z,73583
2017-01-19T01:39:34.700Z,73588
2017-01-19T01:39:43.399Z,73591
2017-01-19T01:39:52.056Z,73598
2017-01-19T01:40:01.108Z,73594
2017-01-19T01:40:09.771Z,73588
2017-01-19T01:40:18.437Z,73591
2017-01-19T01:40:27.117Z,73588
2017-01-19T01:40:35.792Z,73592
2017-01-19T01:40:44.442Z,73591
2017-01-19T01:40:53.088Z,73591
2017-01-19T01:41:01.744Z,73596
2017-01-19T01:41:10.434Z,73587
2017-01-19T01:41:19.112Z,73596
2017-01-19T01:41:27.782Z,73592
2017-01-19T01:41:36.461Z,73590
2017-01-19T01:41:45.115Z,73593
2017-01-19T01:41:53.773Z,73600
2017-01-19T01:42:02.447Z,73597
2017-01-19T01:42:11.099Z,73590
2017-01-19T01:42:19.756Z,73595
2017-01-19T01:42:28.425Z,73595
2017-01-19T01:42:37.120Z,73594
2017-01-19T01:42:45.774Z,73591
2017-01-19T01:42:54.456Z,73593
2017-01-19T01:43:03.130Z,73596
2017-01-19T01:43:11.803Z,73594
2017-01-19T01:43:20.445Z,73599
2017-01-19T01:43:29.099Z,73603
2017-01-19T01:43:37.761Z,73605
2017-01-19T01:43:46.432Z,73600
2017-01-19T01:43:55.102Z,73603
2017-01-19T01:44:03.769Z,73599
2017-01-19T01:44:12.445Z,73591
2017-01-19T01:44:21.082Z,73596
2017-01-19T01:44:29.740Z,73594
2017-01-19T01:44:38.394Z,73595
2017-01-19T01:44:47.081Z,73598
2017-01-19T01:44:55.740Z,73593
2017-01-19T01:45:04.414Z,73594
2017-01-19T01:45:13.107Z,73593
2017-01-19T01:45:21.782Z,73603
2017-01-19T01:45:30.473Z,73601
2017-01-19T01:45:39.143Z,73590
2017-01-19T01:45:47.798Z,73590
2017-01-19T01:45:56.477Z,73585
2017-01-19T01:46:05.201Z,73588
2017-01-19T01:46:13.885Z,73589
2017-01-19T01:46:22.567Z,73598
2017-01-19T01:46:31.257Z,73589
2017-01-19T01:46:39.926Z,73594
2017-01-19T01:46:48.613Z,73592
2017-01-19T01:46:57.287Z,73590
2017-01-19T01:47:05.971Z,73595
2017-01-19T01:47:14.661Z,73593
2017-01-19T01:47:23.333Z,73591
2017-01-19T01:47:32.032Z,73594
2017-01-19T01:47:40.731Z,73595
2017-01-19T01:47:49.411Z,73598
2017-01-19T01:47:58.088Z,73596
2017-01-19T01:48:06.764Z,73593
2017-01-19T01:48:15.454Z,73590
2017-01-19T01:48:24.126Z,73593
2017-01-19T01:48:32.795Z,73595
2017-01-19T01:48:41.456Z,73596
2017-01-19T01:48:50.114Z,73597
2017-01-19T01:48:58.767Z,73595
2017-01-19T01:49:07.420Z,73601
2017-01-19T01:49:16.100Z,73599
2017-01-19T01:49:24.767Z,73601
2017-01-19T01:49:33.444Z,73597
2017-01-19T01:49:42.116Z,73593
2017-01-19T01:49:50.765Z,73596
2017-01-19T01:49:59.438Z,73594
2017-01-19T01:50:08.108Z,73601
2017-01-19T01:50:16.783Z,73601
2017-01-19T01:50:25.460Z,73602
2017-01-19T01:50:34.138Z,73597
2017-01-19T01:50:42.820Z,73600
2017-01-19T01:50:51.492Z,73599
2017-01-19T01:51:00.145Z,73602
2017-01-19T01:51:08.812Z,73600
2017-01-19T01:51:17.857Z,73597
2017-01-19T01:51:26.517Z,73596
2017-01-19T01:51:35.228Z,73591
2017-01-19T01:51:43.893Z,73604